sensor_id;sensor_type;location;lat;lon;timestamp;P1;durP1;ratioP1;P2;durP2;ratioP2
68714;SDS011;55692;53.356;10.030;2023-05-28T00:00:41;11.20;;;5.18;;
68714;SDS011;55692;53.356;10.030;2023-05-28T00:03:09;9.68;;;4.80;;
68714;SDS011;55692;53.356;10.030;2023-05-28T00:05:35;8.93;;;4.50;;
68714;SDS011;55692;53.356;10.030;2023-05-28T00:08:01;13.50;;;5.90;;
68714;SDS011;55692;53.356;10.030;2023-05-28T00:10:27;9.73;;;5.03;;
68714;SDS011;55692;53.356;10.030;2023-05-28T00:12:53;12.77;;;5.22;;
68714;SDS011;55692;53.356;10.030;2023-05-28T00:15:19;11.68;;;5.80;;
68714;SDS011;55692;53.356;10.030;2023-05-28T00:17:45;10.27;;;5.90;;
68714;SDS011;55692;53.356;10.030;2023-05-28T00:20:11;9.88;;;5.28;;
68714;SDS011;55692;53.356;10.030;2023-05-28T00:22:37;16.13;;;6.22;;
68714;SDS011;55692;53.356;10.030;2023-05-28T00:25:04;16.45;;;5.50;;
68714;SDS011;55692;53.356;10.030;2023-05-28T00:27:30;11.48;;;4.60;;
68714;SDS011;55692;53.356;10.030;2023-05-28T00:29:56;13.70;;;5.78;;
68714;SDS011;55692;53.356;10.030;2023-05-28T00:32:22;11.40;;;5.35;;
68714;SDS011;55692;53.356;10.030;2023-05-28T00:34:49;10.05;;;5.20;;
68714;SDS011;55692;53.356;10.030;2023-05-28T00:37:15;11.45;;;5.63;;
68714;SDS011;55692;53.356;10.030;2023-05-28T00:39:41;9.45;;;4.88;;
68714;SDS011;55692;53.356;10.030;2023-05-28T00:42:07;9.98;;;4.90;;
68714;SDS011;55692;53.356;10.030;2023-05-28T00:44:35;10.75;;;4.85;;
68714;SDS011;55692;53.356;10.030;2023-05-28T00:47:03;9.00;;;5.45;;
68714;SDS011;55692;53.356;10.030;2023-05-28T00:49:29;10.52;;;4.80;;
68714;SDS011;55692;53.356;10.030;2023-05-28T00:51:55;8.18;;;5.25;;
68714;SDS011;55692;53.356;10.030;2023-05-28T00:54:22;10.50;;;5.45;;
68714;SDS011;55692;53.356;10.030;2023-05-28T00:56:49;11.80;;;4.50;;
68714;SDS011;55692;53.356;10.030;2023-05-28T00:59:16;12.05;;;5.97;;
68714;SDS011;55692;53.356;10.030;2023-05-28T01:01:42;10.45;;;5.00;;
68714;SDS011;55692;53.356;10.030;2023-05-28T01:04:08;11.20;;;4.88;;
68714;SDS011;55692;53.356;10.030;2023-05-28T01:06:34;12.43;;;5.50;;
68714;SDS011;55692;53.356;10.030;2023-05-28T01:09:03;10.23;;;5.55;;
68714;SDS011;55692;53.356;10.030;2023-05-28T01:11:29;9.75;;;5.45;;
68714;SDS011;55692;53.356;10.030;2023-05-28T01:13:56;13.88;;;6.03;;
68714;SDS011;55692;53.356;10.030;2023-05-28T01:16:22;13.38;;;5.35;;
68714;SDS011;55692;53.356;10.030;2023-05-28T01:18:48;12.48;;;5.20;;
68714;SDS011;55692;53.356;10.030;2023-05-28T01:21:20;12.95;;;4.78;;
68714;SDS011;55692;53.356;10.030;2023-05-28T01:23:47;10.85;;;5.70;;
68714;SDS011;55692;53.356;10.030;2023-05-28T01:26:13;8.70;;;4.97;;
68714;SDS011;55692;53.356;10.030;2023-05-28T01:28:40;8.48;;;4.68;;
68714;SDS011;55692;53.356;10.030;2023-05-28T01:31:11;8.57;;;5.55;;
68714;SDS011;55692;53.356;10.030;2023-05-28T01:33:38;10.95;;;5.07;;
68714;SDS011;55692;53.356;10.030;2023-05-28T01:36:06;9.57;;;4.40;;
68714;SDS011;55692;53.356;10.030;2023-05-28T01:38:34;11.07;;;4.85;;
68714;SDS011;55692;53.356;10.030;2023-05-28T01:41:01;10.38;;;4.68;;
68714;SDS011;55692;53.356;10.030;2023-05-28T01:43:28;10.10;;;5.03;;
68714;SDS011;55692;53.356;10.030;2023-05-28T01:45:54;8.50;;;4.88;;
68714;SDS011;55692;53.356;10.030;2023-05-28T01:48:20;10.90;;;4.93;;
68714;SDS011;55692;53.356;10.030;2023-05-28T01:50:47;11.27;;;4.55;;
68714;SDS011;55692;53.356;10.030;2023-05-28T01:53:13;8.90;;;4.93;;
68714;SDS011;55692;53.356;10.030;2023-05-28T01:55:39;8.52;;;4.32;;
68714;SDS011;55692;53.356;10.030;2023-05-28T01:58:05;7.97;;;4.43;;
68714;SDS011;55692;53.356;10.030;2023-05-28T02:00:31;8.05;;;4.65;;
68714;SDS011;55692;53.356;10.030;2023-05-28T02:02:58;9.13;;;4.32;;
68714;SDS011;55692;53.356;10.030;2023-05-28T02:05:24;8.95;;;4.65;;
68714;SDS011;55692;53.356;10.030;2023-05-28T02:07:50;8.60;;;4.25;;
68714;SDS011;55692;53.356;10.030;2023-05-28T02:10:18;12.98;;;4.90;;
68714;SDS011;55692;53.356;10.030;2023-05-28T02:12:45;10.55;;;4.95;;
68714;SDS011;55692;53.356;10.030;2023-05-28T02:15:10;9.73;;;4.38;;
68714;SDS011;55692;53.356;10.030;2023-05-28T02:17:37;13.73;;;5.25;;
68714;SDS011;55692;53.356;10.030;2023-05-28T02:20:03;9.48;;;4.82;;
68714;SDS011;55692;53.356;10.030;2023-05-28T02:22:29;11.98;;;5.63;;
68714;SDS011;55692;53.356;10.030;2023-05-28T02:24:55;7.80;;;5.18;;
68714;SDS011;55692;53.356;10.030;2023-05-28T02:27:21;12.32;;;5.10;;
68714;SDS011;55692;53.356;10.030;2023-05-28T02:29:48;8.32;;;4.80;;
68714;SDS011;55692;53.356;10.030;2023-05-28T02:32:14;10.88;;;4.97;;
68714;SDS011;55692;53.356;10.030;2023-05-28T02:34:41;11.30;;;4.82;;
68714;SDS011;55692;53.356;10.030;2023-05-28T02:37:07;12.77;;;6.03;;
68714;SDS011;55692;53.356;10.030;2023-05-28T02:39:34;9.88;;;4.70;;
68714;SDS011;55692;53.356;10.030;2023-05-28T02:42:00;10.43;;;4.80;;
68714;SDS011;55692;53.356;10.030;2023-05-28T02:44:26;11.05;;;4.55;;
68714;SDS011;55692;53.356;10.030;2023-05-28T02:46:52;13.57;;;5.28;;
68714;SDS011;55692;53.356;10.030;2023-05-28T02:49:18;11.70;;;5.55;;
68714;SDS011;55692;53.356;10.030;2023-05-28T02:51:44;12.50;;;5.65;;
68714;SDS011;55692;53.356;10.030;2023-05-28T02:54:09;13.25;;;5.63;;
68714;SDS011;55692;53.356;10.030;2023-05-28T02:56:35;11.70;;;5.35;;
68714;SDS011;55692;53.356;10.030;2023-05-28T02:59:01;10.63;;;4.38;;
68714;SDS011;55692;53.356;10.030;2023-05-28T03:01:27;10.02;;;5.00;;
68714;SDS011;55692;53.356;10.030;2023-05-28T03:03:53;9.18;;;4.63;;
68714;SDS011;55692;53.356;10.030;2023-05-28T03:06:19;12.98;;;4.25;;
68714;SDS011;55692;53.356;10.030;2023-05-28T03:08:46;8.10;;;4.65;;
68714;SDS011;55692;53.356;10.030;2023-05-28T03:11:12;10.65;;;5.15;;
68714;SDS011;55692;53.356;10.030;2023-05-28T03:13:38;9.82;;;4.22;;
68714;SDS011;55692;53.356;10.030;2023-05-28T03:16:04;9.23;;;3.90;;
68714;SDS011;55692;53.356;10.030;2023-05-28T03:18:30;11.50;;;4.63;;
68714;SDS011;55692;53.356;10.030;2023-05-28T03:20:56;8.32;;;4.53;;
68714;SDS011;55692;53.356;10.030;2023-05-28T03:23:22;8.85;;;4.90;;
68714;SDS011;55692;53.356;10.030;2023-05-28T03:25:48;10.80;;;5.75;;
68714;SDS011;55692;53.356;10.030;2023-05-28T03:28:14;10.23;;;5.07;;
68714;SDS011;55692;53.356;10.030;2023-05-28T03:30:40;8.18;;;4.88;;
68714;SDS011;55692;53.356;10.030;2023-05-28T03:33:06;13.55;;;5.38;;
68714;SDS011;55692;53.356;10.030;2023-05-28T03:35:32;10.27;;;4.78;;
68714;SDS011;55692;53.356;10.030;2023-05-28T03:37:58;13.07;;;5.22;;
68714;SDS011;55692;53.356;10.030;2023-05-28T03:40:24;8.98;;;4.75;;
68714;SDS011;55692;53.356;10.030;2023-05-28T03:42:50;8.48;;;4.05;;
68714;SDS011;55692;53.356;10.030;2023-05-28T03:45:16;8.93;;;4.28;;
68714;SDS011;55692;53.356;10.030;2023-05-28T03:47:42;6.97;;;3.78;;
68714;SDS011;55692;53.356;10.030;2023-05-28T03:50:08;9.93;;;4.45;;
68714;SDS011;55692;53.356;10.030;2023-05-28T03:52:35;8.80;;;4.47;;
68714;SDS011;55692;53.356;10.030;2023-05-28T03:55:01;10.18;;;4.88;;
68714;SDS011;55692;53.356;10.030;2023-05-28T03:57:27;9.82;;;4.95;;
68714;SDS011;55692;53.356;10.030;2023-05-28T03:59:53;11.43;;;4.95;;
68714;SDS011;55692;53.356;10.030;2023-05-28T04:02:21;11.65;;;4.97;;
68714;SDS011;55692;53.356;10.030;2023-05-28T04:04:47;10.40;;;4.60;;
68714;SDS011;55692;53.356;10.030;2023-05-28T04:07:14;9.35;;;4.18;;
68714;SDS011;55692;53.356;10.030;2023-05-28T04:09:40;16.25;;;5.88;;
68714;SDS011;55692;53.356;10.030;2023-05-28T04:12:06;9.80;;;5.20;;
68714;SDS011;55692;53.356;10.030;2023-05-28T04:14:32;9.32;;;4.15;;
68714;SDS011;55692;53.356;10.030;2023-05-28T04:16:58;11.65;;;4.50;;
68714;SDS011;55692;53.356;10.030;2023-05-28T04:19:24;9.32;;;4.40;;
68714;SDS011;55692;53.356;10.030;2023-05-28T04:21:50;5.95;;;3.65;;
68714;SDS011;55692;53.356;10.030;2023-05-28T04:24:16;6.55;;;3.65;;
68714;SDS011;55692;53.356;10.030;2023-05-28T04:26:42;7.22;;;3.88;;
68714;SDS011;55692;53.356;10.030;2023-05-28T04:29:08;7.90;;;4.00;;
68714;SDS011;55692;53.356;10.030;2023-05-28T04:31:34;8.07;;;4.22;;
68714;SDS011;55692;53.356;10.030;2023-05-28T04:34:00;9.50;;;4.25;;
68714;SDS011;55692;53.356;10.030;2023-05-28T04:36:28;6.50;;;3.70;;
68714;SDS011;55692;53.356;10.030;2023-05-28T04:38:58;6.10;;;3.45;;
68714;SDS011;55692;53.356;10.030;2023-05-28T04:41:26;5.95;;;3.30;;
68714;SDS011;55692;53.356;10.030;2023-05-28T04:43:52;5.50;;;3.00;;
68714;SDS011;55692;53.356;10.030;2023-05-28T04:46:18;8.18;;;3.90;;
68714;SDS011;55692;53.356;10.030;2023-05-28T04:48:44;8.88;;;4.10;;
68714;SDS011;55692;53.356;10.030;2023-05-28T04:51:10;7.20;;;3.97;;
68714;SDS011;55692;53.356;10.030;2023-05-28T04:53:37;10.80;;;3.97;;
68714;SDS011;55692;53.356;10.030;2023-05-28T04:56:03;7.18;;;3.78;;
68714;SDS011;55692;53.356;10.030;2023-05-28T04:58:29;8.80;;;4.75;;
68714;SDS011;55692;53.356;10.030;2023-05-28T05:00:55;10.98;;;4.40;;
68714;SDS011;55692;53.356;10.030;2023-05-28T05:03:21;13.85;;;5.65;;
68714;SDS011;55692;53.356;10.030;2023-05-28T05:05:47;11.63;;;4.38;;
68714;SDS011;55692;53.356;10.030;2023-05-28T05:08:13;7.80;;;4.45;;
68714;SDS011;55692;53.356;10.030;2023-05-28T05:10:39;10.98;;;4.32;;
68714;SDS011;55692;53.356;10.030;2023-05-28T05:13:05;6.97;;;3.97;;
68714;SDS011;55692;53.356;10.030;2023-05-28T05:15:31;10.10;;;4.28;;
68714;SDS011;55692;53.356;10.030;2023-05-28T05:17:58;8.50;;;4.25;;
68714;SDS011;55692;53.356;10.030;2023-05-28T05:20:25;10.48;;;4.63;;
68714;SDS011;55692;53.356;10.030;2023-05-28T05:22:51;14.02;;;4.63;;
68714;SDS011;55692;53.356;10.030;2023-05-28T05:25:17;9.30;;;4.00;;
68714;SDS011;55692;53.356;10.030;2023-05-28T05:27:43;10.07;;;4.68;;
68714;SDS011;55692;53.356;10.030;2023-05-28T05:30:09;13.23;;;5.13;;
68714;SDS011;55692;53.356;10.030;2023-05-28T05:32:36;13.15;;;4.38;;
68714;SDS011;55692;53.356;10.030;2023-05-28T05:35:02;8.52;;;4.40;;
68714;SDS011;55692;53.356;10.030;2023-05-28T05:37:28;9.70;;;4.75;;
68714;SDS011;55692;53.356;10.030;2023-05-28T05:39:54;11.77;;;4.35;;
68714;SDS011;55692;53.356;10.030;2023-05-28T05:42:20;8.63;;;4.45;;
68714;SDS011;55692;53.356;10.030;2023-05-28T05:44:46;9.38;;;4.78;;
68714;SDS011;55692;53.356;10.030;2023-05-28T05:47:12;11.93;;;5.35;;
68714;SDS011;55692;53.356;10.030;2023-05-28T05:49:38;12.73;;;5.28;;
68714;SDS011;55692;53.356;10.030;2023-05-28T05:52:04;8.25;;;4.85;;
68714;SDS011;55692;53.356;10.030;2023-05-28T05:54:30;13.60;;;5.35;;
68714;SDS011;55692;53.356;10.030;2023-05-28T05:56:56;12.27;;;5.30;;
68714;SDS011;55692;53.356;10.030;2023-05-28T05:59:24;11.40;;;5.00;;
68714;SDS011;55692;53.356;10.030;2023-05-28T06:01:50;13.65;;;5.25;;
68714;SDS011;55692;53.356;10.030;2023-05-28T06:04:16;9.90;;;4.53;;
68714;SDS011;55692;53.356;10.030;2023-05-28T06:06:42;14.10;;;5.65;;
68714;SDS011;55692;53.356;10.030;2023-05-28T06:09:09;11.15;;;4.90;;
68714;SDS011;55692;53.356;10.030;2023-05-28T06:11:35;15.65;;;4.88;;
68714;SDS011;55692;53.356;10.030;2023-05-28T06:14:01;16.20;;;5.57;;
68714;SDS011;55692;53.356;10.030;2023-05-28T06:16:27;12.13;;;5.15;;
68714;SDS011;55692;53.356;10.030;2023-05-28T06:18:53;11.65;;;4.90;;
68714;SDS011;55692;53.356;10.030;2023-05-28T06:21:20;15.95;;;4.80;;
68714;SDS011;55692;53.356;10.030;2023-05-28T06:23:45;11.35;;;5.13;;
68714;SDS011;55692;53.356;10.030;2023-05-28T06:26:12;13.82;;;5.20;;
68714;SDS011;55692;53.356;10.030;2023-05-28T06:28:38;12.10;;;4.45;;
68714;SDS011;55692;53.356;10.030;2023-05-28T06:31:04;13.25;;;4.68;;
68714;SDS011;55692;53.356;10.030;2023-05-28T06:33:31;12.95;;;5.20;;
68714;SDS011;55692;53.356;10.030;2023-05-28T06:35:57;11.52;;;4.93;;
68714;SDS011;55692;53.356;10.030;2023-05-28T06:38:23;12.27;;;4.88;;
68714;SDS011;55692;53.356;10.030;2023-05-28T06:40:49;11.57;;;4.88;;
68714;SDS011;55692;53.356;10.030;2023-05-28T06:43:15;12.45;;;4.40;;
68714;SDS011;55692;53.356;10.030;2023-05-28T06:45:41;10.52;;;4.40;;
68714;SDS011;55692;53.356;10.030;2023-05-28T06:48:07;8.45;;;3.97;;
68714;SDS011;55692;53.356;10.030;2023-05-28T06:50:33;12.82;;;5.15;;
68714;SDS011;55692;53.356;10.030;2023-05-28T06:52:59;11.10;;;4.55;;
68714;SDS011;55692;53.356;10.030;2023-05-28T06:55:26;13.00;;;4.05;;
68714;SDS011;55692;53.356;10.030;2023-05-28T06:57:52;11.98;;;4.22;;
68714;SDS011;55692;53.356;10.030;2023-05-28T07:00:18;11.15;;;4.22;;
68714;SDS011;55692;53.356;10.030;2023-05-28T07:02:44;11.45;;;3.92;;
68714;SDS011;55692;53.356;10.030;2023-05-28T07:05:10;9.45;;;3.75;;
68714;SDS011;55692;53.356;10.030;2023-05-28T07:07:37;11.60;;;4.18;;
68714;SDS011;55692;53.356;10.030;2023-05-28T07:10:03;9.02;;;3.92;;
68714;SDS011;55692;53.356;10.030;2023-05-28T07:12:29;8.70;;;3.45;;
68714;SDS011;55692;53.356;10.030;2023-05-28T07:14:55;12.43;;;4.40;;
68714;SDS011;55692;53.356;10.030;2023-05-28T07:17:21;12.05;;;4.53;;
68714;SDS011;55692;53.356;10.030;2023-05-28T07:19:48;13.50;;;4.60;;
68714;SDS011;55692;53.356;10.030;2023-05-28T07:22:14;10.95;;;4.70;;
68714;SDS011;55692;53.356;10.030;2023-05-28T07:24:40;11.52;;;4.28;;
68714;SDS011;55692;53.356;10.030;2023-05-28T07:27:06;9.52;;;4.57;;
68714;SDS011;55692;53.356;10.030;2023-05-28T07:29:32;12.52;;;4.10;;
68714;SDS011;55692;53.356;10.030;2023-05-28T07:31:58;13.55;;;4.18;;
68714;SDS011;55692;53.356;10.030;2023-05-28T07:34:24;12.13;;;4.25;;
68714;SDS011;55692;53.356;10.030;2023-05-28T07:36:50;10.40;;;3.90;;
68714;SDS011;55692;53.356;10.030;2023-05-28T07:39:16;8.80;;;3.78;;
68714;SDS011;55692;53.356;10.030;2023-05-28T07:41:42;8.65;;;3.80;;
68714;SDS011;55692;53.356;10.030;2023-05-28T07:44:08;10.05;;;3.85;;
68714;SDS011;55692;53.356;10.030;2023-05-28T07:46:35;12.20;;;4.15;;
68714;SDS011;55692;53.356;10.030;2023-05-28T07:49:02;11.40;;;4.13;;
68714;SDS011;55692;53.356;10.030;2023-05-28T07:51:28;11.80;;;4.85;;
68714;SDS011;55692;53.356;10.030;2023-05-28T07:53:54;11.30;;;3.45;;
68714;SDS011;55692;53.356;10.030;2023-05-28T07:56:20;11.80;;;4.25;;
68714;SDS011;55692;53.356;10.030;2023-05-28T07:58:47;11.73;;;4.28;;
68714;SDS011;55692;53.356;10.030;2023-05-28T08:01:13;13.35;;;5.18;;
68714;SDS011;55692;53.356;10.030;2023-05-28T08:03:39;13.25;;;4.05;;
68714;SDS011;55692;53.356;10.030;2023-05-28T08:06:05;11.65;;;4.20;;
68714;SDS011;55692;53.356;10.030;2023-05-28T08:08:32;14.05;;;4.18;;
68714;SDS011;55692;53.356;10.030;2023-05-28T08:10:58;12.02;;;4.47;;
68714;SDS011;55692;53.356;10.030;2023-05-28T08:13:24;12.45;;;4.45;;
68714;SDS011;55692;53.356;10.030;2023-05-28T08:15:50;15.90;;;5.10;;
68714;SDS011;55692;53.356;10.030;2023-05-28T08:18:17;11.15;;;4.95;;
68714;SDS011;55692;53.356;10.030;2023-05-28T08:20:43;17.48;;;5.68;;
68714;SDS011;55692;53.356;10.030;2023-05-28T08:23:09;16.58;;;5.30;;
68714;SDS011;55692;53.356;10.030;2023-05-28T08:25:35;13.38;;;4.57;;
68714;SDS011;55692;53.356;10.030;2023-05-28T08:28:01;16.23;;;4.82;;
68714;SDS011;55692;53.356;10.030;2023-05-28T08:30:27;15.07;;;4.95;;
68714;SDS011;55692;53.356;10.030;2023-05-28T08:32:53;17.85;;;5.22;;
68714;SDS011;55692;53.356;10.030;2023-05-28T08:35:19;16.58;;;5.30;;
68714;SDS011;55692;53.356;10.030;2023-05-28T08:37:45;11.60;;;4.50;;
68714;SDS011;55692;53.356;10.030;2023-05-28T08:40:11;13.65;;;5.07;;
68714;SDS011;55692;53.356;10.030;2023-05-28T08:42:38;19.60;;;6.20;;
68714;SDS011;55692;53.356;10.030;2023-05-28T08:45:04;21.85;;;6.03;;
68714;SDS011;55692;53.356;10.030;2023-05-28T08:47:32;13.60;;;5.57;;
68714;SDS011;55692;53.356;10.030;2023-05-28T08:49:59;11.85;;;4.93;;
68714;SDS011;55692;53.356;10.030;2023-05-28T08:52:27;12.55;;;4.90;;
68714;SDS011;55692;53.356;10.030;2023-05-28T08:54:57;11.02;;;4.97;;
68714;SDS011;55692;53.356;10.030;2023-05-28T08:57:23;12.07;;;5.00;;
68714;SDS011;55692;53.356;10.030;2023-05-28T08:59:50;18.55;;;6.32;;
68714;SDS011;55692;53.356;10.030;2023-05-28T09:02:22;13.88;;;4.53;;
68714;SDS011;55692;53.356;10.030;2023-05-28T09:04:48;11.20;;;4.40;;
68714;SDS011;55692;53.356;10.030;2023-05-28T09:07:18;10.57;;;3.90;;
68714;SDS011;55692;53.356;10.030;2023-05-28T09:09:44;11.18;;;4.07;;
68714;SDS011;55692;53.356;10.030;2023-05-28T09:12:19;14.73;;;4.60;;
68714;SDS011;55692;53.356;10.030;2023-05-28T09:14:45;10.73;;;3.88;;
68714;SDS011;55692;53.356;10.030;2023-05-28T09:17:11;10.85;;;3.80;;
68714;SDS011;55692;53.356;10.030;2023-05-28T09:19:38;11.40;;;3.58;;
68714;SDS011;55692;53.356;10.030;2023-05-28T09:22:05;11.18;;;3.88;;
68714;SDS011;55692;53.356;10.030;2023-05-28T09:24:31;7.97;;;3.38;;
68714;SDS011;55692;53.356;10.030;2023-05-28T09:26:57;7.78;;;3.45;;
68714;SDS011;55692;53.356;10.030;2023-05-28T09:29:24;10.60;;;4.15;;
68714;SDS011;55692;53.356;10.030;2023-05-28T09:32:01;11.43;;;3.50;;
68714;SDS011;55692;53.356;10.030;2023-05-28T09:34:28;9.23;;;3.75;;
68714;SDS011;55692;53.356;10.030;2023-05-28T09:37:03;17.27;;;4.38;;
68714;SDS011;55692;53.356;10.030;2023-05-28T09:39:30;7.13;;;3.30;;
68714;SDS011;55692;53.356;10.030;2023-05-28T09:42:00;10.32;;;3.30;;
68714;SDS011;55692;53.356;10.030;2023-05-28T09:44:31;11.90;;;4.32;;
68714;SDS011;55692;53.356;10.030;2023-05-28T09:46:57;12.75;;;3.63;;
68714;SDS011;55692;53.356;10.030;2023-05-28T09:49:23;10.55;;;3.55;;
68714;SDS011;55692;53.356;10.030;2023-05-28T09:51:51;10.10;;;3.20;;
68714;SDS011;55692;53.356;10.030;2023-05-28T09:54:21;11.48;;;3.47;;
68714;SDS011;55692;53.356;10.030;2023-05-28T09:56:49;12.15;;;3.58;;
68714;SDS011;55692;53.356;10.030;2023-05-28T09:59:17;12.80;;;4.07;;
68714;SDS011;55692;53.356;10.030;2023-05-28T10:01:45;7.55;;;2.83;;
68714;SDS011;55692;53.356;10.030;2023-05-28T10:04:12;6.72;;;2.67;;
68714;SDS011;55692;53.356;10.030;2023-05-28T10:06:40;14.32;;;3.38;;
68714;SDS011;55692;53.356;10.030;2023-05-28T10:09:07;10.25;;;3.00;;
68714;SDS011;55692;53.356;10.030;2023-05-28T10:11:37;11.40;;;3.60;;
68714;SDS011;55692;53.356;10.030;2023-05-28T10:14:04;7.93;;;3.58;;
68714;SDS011;55692;53.356;10.030;2023-05-28T10:16:31;10.23;;;3.22;;
68714;SDS011;55692;53.356;10.030;2023-05-28T10:18:57;14.30;;;3.83;;
68714;SDS011;55692;53.356;10.030;2023-05-28T10:21:23;7.38;;;3.15;;
68714;SDS011;55692;53.356;10.030;2023-05-28T10:23:50;8.35;;;2.88;;
68714;SDS011;55692;53.356;10.030;2023-05-28T10:26:17;9.60;;;3.22;;
68714;SDS011;55692;53.356;10.030;2023-05-28T10:28:44;9.93;;;3.58;;
68714;SDS011;55692;53.356;10.030;2023-05-28T10:31:10;8.63;;;3.28;;
68714;SDS011;55692;53.356;10.030;2023-05-28T10:33:37;7.63;;;2.95;;
68714;SDS011;55692;53.356;10.030;2023-05-28T10:36:03;10.75;;;3.45;;
68714;SDS011;55692;53.356;10.030;2023-05-28T10:38:29;8.10;;;3.30;;
68714;SDS011;55692;53.356;10.030;2023-05-28T10:41:02;6.88;;;2.72;;
68714;SDS011;55692;53.356;10.030;2023-05-28T10:46:16;8.15;;;3.10;;
68714;SDS011;55692;53.356;10.030;2023-05-28T10:54:21;8.50;;;3.40;;
68714;SDS011;55692;53.356;10.030;2023-05-28T10:57:06;16.80;;;4.30;;
68714;SDS011;55692;53.356;10.030;2023-05-28T11:02:12;10.32;;;3.33;;
68714;SDS011;55692;53.356;10.030;2023-05-28T11:04:38;12.13;;;3.63;;
68714;SDS011;55692;53.356;10.030;2023-05-28T11:07:05;10.73;;;3.40;;
68714;SDS011;55692;53.356;10.030;2023-05-28T11:09:31;9.57;;;3.67;;
68714;SDS011;55692;53.356;10.030;2023-05-28T11:11:57;8.13;;;3.13;;
68714;SDS011;55692;53.356;10.030;2023-05-28T11:14:28;12.73;;;3.63;;
68714;SDS011;55692;53.356;10.030;2023-05-28T11:16:54;10.57;;;3.55;;
68714;SDS011;55692;53.356;10.030;2023-05-28T11:19:20;6.53;;;3.20;;
68714;SDS011;55692;53.356;10.030;2023-05-28T11:21:52;11.13;;;4.03;;
68714;SDS011;55692;53.356;10.030;2023-05-28T11:24:20;6.95;;;3.00;;
68714;SDS011;55692;53.356;10.030;2023-05-28T11:26:46;10.15;;;3.20;;
68714;SDS011;55692;53.356;10.030;2023-05-28T11:29:12;8.27;;;3.30;;
68714;SDS011;55692;53.356;10.030;2023-05-28T11:31:39;10.70;;;3.60;;
68714;SDS011;55692;53.356;10.030;2023-05-28T11:34:06;7.50;;;3.47;;
68714;SDS011;55692;53.356;10.030;2023-05-28T11:36:41;10.68;;;3.13;;
68714;SDS011;55692;53.356;10.030;2023-05-28T11:39:07;8.27;;;3.13;;
68714;SDS011;55692;53.356;10.030;2023-05-28T11:41:33;7.70;;;2.92;;
68714;SDS011;55692;53.356;10.030;2023-05-28T11:43:59;8.70;;;3.30;;
68714;SDS011;55692;53.356;10.030;2023-05-28T11:46:25;9.80;;;3.15;;
68714;SDS011;55692;53.356;10.030;2023-05-28T11:48:51;6.72;;;3.00;;
68714;SDS011;55692;53.356;10.030;2023-05-28T11:51:20;7.70;;;3.15;;
68714;SDS011;55692;53.356;10.030;2023-05-28T11:53:46;6.43;;;2.90;;
68714;SDS011;55692;53.356;10.030;2023-05-28T11:56:12;12.32;;;3.65;;
68714;SDS011;55692;53.356;10.030;2023-05-28T11:58:43;9.10;;;3.35;;
68714;SDS011;55692;53.356;10.030;2023-05-28T12:01:13;8.95;;;4.00;;
68714;SDS011;55692;53.356;10.030;2023-05-28T12:03:40;8.35;;;3.05;;
68714;SDS011;55692;53.356;10.030;2023-05-28T12:06:06;11.60;;;3.58;;
68714;SDS011;55692;53.356;10.030;2023-05-28T12:08:32;8.00;;;3.50;;
68714;SDS011;55692;53.356;10.030;2023-05-28T12:10:59;10.50;;;3.40;;
68714;SDS011;55692;53.356;10.030;2023-05-28T12:13:32;10.82;;;4.10;;
68714;SDS011;55692;53.356;10.030;2023-05-28T12:16:32;13.57;;;4.03;;
68714;SDS011;55692;53.356;10.030;2023-05-28T12:18:51;11.95;;;3.47;;
68714;SDS011;55692;53.356;10.030;2023-05-28T12:21:17;9.65;;;3.22;;
68714;SDS011;55692;53.356;10.030;2023-05-28T12:23:45;12.10;;;3.70;;
68714;SDS011;55692;53.356;10.030;2023-05-28T12:26:11;8.27;;;3.40;;
68714;SDS011;55692;53.356;10.030;2023-05-28T12:28:37;10.82;;;3.58;;
68714;SDS011;55692;53.356;10.030;2023-05-28T12:31:05;8.00;;;3.55;;
68714;SDS011;55692;53.356;10.030;2023-05-28T12:33:32;6.60;;;3.17;;
68714;SDS011;55692;53.356;10.030;2023-05-28T12:35:58;7.93;;;2.97;;
68714;SDS011;55692;53.356;10.030;2023-05-28T12:38:25;13.27;;;4.18;;
68714;SDS011;55692;53.356;10.030;2023-05-28T12:40:51;8.00;;;3.33;;
68714;SDS011;55692;53.356;10.030;2023-05-28T12:43:17;10.23;;;3.40;;
68714;SDS011;55692;53.356;10.030;2023-05-28T12:45:43;6.80;;;3.00;;
68714;SDS011;55692;53.356;10.030;2023-05-28T12:48:09;8.52;;;3.05;;
68714;SDS011;55692;53.356;10.030;2023-05-28T12:50:35;9.00;;;3.17;;
68714;SDS011;55692;53.356;10.030;2023-05-28T12:53:01;10.48;;;3.00;;
68714;SDS011;55692;53.356;10.030;2023-05-28T12:55:31;11.07;;;3.75;;
68714;SDS011;55692;53.356;10.030;2023-05-28T12:57:57;7.38;;;3.33;;
68714;SDS011;55692;53.356;10.030;2023-05-28T13:00:23;10.63;;;3.58;;
68714;SDS011;55692;53.356;10.030;2023-05-28T13:02:49;8.60;;;3.30;;
68714;SDS011;55692;53.356;10.030;2023-05-28T13:05:16;9.10;;;3.30;;
68714;SDS011;55692;53.356;10.030;2023-05-28T13:07:42;11.02;;;3.83;;
68714;SDS011;55692;53.356;10.030;2023-05-28T13:10:10;10.32;;;3.47;;
68714;SDS011;55692;53.356;10.030;2023-05-28T13:12:36;6.88;;;2.80;;
68714;SDS011;55692;53.356;10.030;2023-05-28T13:15:03;5.38;;;3.00;;
68714;SDS011;55692;53.356;10.030;2023-05-28T13:17:29;9.10;;;3.70;;
68714;SDS011;55692;53.356;10.030;2023-05-28T13:19:55;8.07;;;3.30;;
68714;SDS011;55692;53.356;10.030;2023-05-28T13:22:21;9.68;;;3.88;;
68714;SDS011;55692;53.356;10.030;2023-05-28T13:24:47;8.60;;;3.65;;
68714;SDS011;55692;53.356;10.030;2023-05-28T13:27:14;8.88;;;3.67;;
68714;SDS011;55692;53.356;10.030;2023-05-28T13:29:40;10.50;;;3.88;;
68714;SDS011;55692;53.356;10.030;2023-05-28T13:32:06;8.40;;;3.42;;
68714;SDS011;55692;53.356;10.030;2023-05-28T13:34:33;12.98;;;3.47;;
68714;SDS011;55692;53.356;10.030;2023-05-28T13:37:00;8.65;;;3.78;;
68714;SDS011;55692;53.356;10.030;2023-05-28T13:39:26;9.70;;;3.40;;
68714;SDS011;55692;53.356;10.030;2023-05-28T13:41:52;9.05;;;3.80;;
68714;SDS011;55692;53.356;10.030;2023-05-28T13:44:18;12.60;;;4.03;;
68714;SDS011;55692;53.356;10.030;2023-05-28T13:46:45;9.32;;;3.17;;
68714;SDS011;55692;53.356;10.030;2023-05-28T13:49:11;8.23;;;3.50;;
68714;SDS011;55692;53.356;10.030;2023-05-28T13:51:37;9.75;;;3.38;;
68714;SDS011;55692;53.356;10.030;2023-05-28T13:54:06;12.50;;;3.97;;
68714;SDS011;55692;53.356;10.030;2023-05-28T13:56:32;11.18;;;3.80;;
68714;SDS011;55692;53.356;10.030;2023-05-28T13:58:58;8.48;;;3.85;;
68714;SDS011;55692;53.356;10.030;2023-05-28T14:01:24;12.60;;;3.75;;
68714;SDS011;55692;53.356;10.030;2023-05-28T14:03:51;9.82;;;3.90;;
68714;SDS011;55692;53.356;10.030;2023-05-28T14:06:17;8.38;;;3.70;;
68714;SDS011;55692;53.356;10.030;2023-05-28T14:08:43;12.43;;;3.88;;
68714;SDS011;55692;53.356;10.030;2023-05-28T14:11:09;15.55;;;3.83;;
68714;SDS011;55692;53.356;10.030;2023-05-28T14:13:35;12.02;;;4.13;;
68714;SDS011;55692;53.356;10.030;2023-05-28T14:16:01;12.85;;;4.13;;
68714;SDS011;55692;53.356;10.030;2023-05-28T14:18:27;8.02;;;3.45;;
68714;SDS011;55692;53.356;10.030;2023-05-28T14:20:53;7.93;;;3.60;;
68714;SDS011;55692;53.356;10.030;2023-05-28T14:23:19;8.00;;;3.03;;
68714;SDS011;55692;53.356;10.030;2023-05-28T14:25:45;13.20;;;4.00;;
68714;SDS011;55692;53.356;10.030;2023-05-28T14:28:11;13.35;;;4.07;;
68714;SDS011;55692;53.356;10.030;2023-05-28T14:30:37;9.48;;;3.67;;
68714;SDS011;55692;53.356;10.030;2023-05-28T14:33:03;7.43;;;3.63;;